Time;durP1;ratioP1;P1;durP2;ratioP2;P2;SDS_P1;SDS_P2;PMS_P1;PMS_P2;Temp;Humidity;BMP_temperature;BMP_pressure;BME280_temperature;BME280_humidity;BME280_pressure;Samples;Min_cycle;Max_cycle;Signal;HPM_P1;HPM_P2
2024/01/10 07:44:57;;;;;;;;;9.50;8.25;;;;;19.42;31.87;102404.91;6272139;22;45283;-75
2024/01/10 07:47:22;;;;;;;;;10.00;8.75;;;;;19.23;32.03;102375.56;6272042;22;46826;-76
2024/01/10 07:49:47;;;;;;;;;8.75;8.00;;;;;19.45;32.28;102412.59;6272738;22;45243;-77
2024/01/10 07:52:13;;;;;;;;;6.50;6.50;;;;;19.36;32.71;102387.81;6272452;22;48965;-75
2024/01/10 07:54:38;;;;;;;;;10.50;7.75;;;;;19.48;32.61;102401.78;6273625;22;45539;-75
2024/01/10 07:57:03;;;;;;;;;9.50;6.75;;;;;19.50;32.65;102407.78;6272892;22;61509;-76
2024/01/10 07:59:29;;;;;;;;;11.00;9.25;;;;;19.47;32.61;102406.22;6273467;22;45224;-75
2024/01/10 08:01:58;;;;;;;;;8.75;7.25;;;;;19.52;32.65;102413.75;6270358;22;45457;-76
2024/01/10 08:04:25;;;;;;;;;9.75;8.25;;;;;19.54;32.99;102411.03;6271521;22;45462;-73
2024/01/10 08:06:51;;;;;;;;;9.00;7.50;;;;;19.55;32.98;102412.69;6272582;22;46471;-76
2024/01/10 08:09:16;;;;;;;;;7.00;7.00;;;;;19.43;32.74;102390.78;6252819;22;45672;-75
2024/01/10 08:11:41;;;;;;;;;8.75;7.25;;;;;19.42;32.73;102395.19;6268976;22;45364;-75
2024/01/10 08:14:06;;;;;;;;;14.00;9.75;;;;;19.37;32.66;102390.31;6268758;22;45312;-76
2024/01/10 08:16:35;;;;;;;;;11.75;7.50;;;;;19.53;32.73;102419.88;6268218;22;66766;-75
2024/01/10 08:19:00;;;;;;;;;9.25;9.25;;;;;19.51;32.93;102418.22;6269399;22;45288;-75
2024/01/10 08:21:25;;;;;;;;;6.25;6.25;;;;;19.50;32.82;102413.06;6269177;22;45438;-75
2024/01/10 08:23:50;;;;;;;;;9.50;8.25;;;;;19.52;32.53;102419.03;6269387;22;45310;-76
2024/01/10 08:26:16;;;;;;;;;8.25;6.00;;;;;19.42;32.63;102408.41;6269418;22;54684;-75
2024/01/10 08:28:42;;;;;;;;;5.00;5.00;;;;;19.41;32.71;102406.75;6241338;22;45380;-76
2024/01/10 08:31:08;;;;;;;;;14.50;10.00;;;;;19.41;32.43;102404.09;6269465;22;45421;-75
2024/01/10 08:33:33;;;;;;;;;11.00;9.75;;;;;19.37;32.43;102403.50;6268574;22;45396;-75
2024/01/10 08:35:59;;;;;;;;;11.25;8.75;;;;;19.44;32.53;102416.22;6267161;22;47278;-73
2024/01/10 08:38:24;;;;;;;;;7.75;7.75;;;;;19.37;32.39;102406.13;6269634;22;45258;-75
2024/01/10 08:40:50;;;;;;;;;11.00;7.75;;;;;19.40;32.31;102421.72;6269094;22;45327;-76
2024/01/10 08:43:15;;;;;;;;;8.00;8.00;;;;;19.47;32.61;102435.25;6269179;22;49092;-75
2024/01/10 08:45:40;;;;;;;;;7.00;7.00;;;;;19.46;32.45;102433.59;6269143;22;47032;-75
2024/01/10 08:48:10;;;;;;;;;10.75;8.25;;;;;19.45;32.51;102429.28;6267857;22;55667;-75
2024/01/10 08:50:35;;;;;;;;;13.00;10.00;;;;;19.37;32.26;102413.22;6269046;22;45188;-75
2024/01/10 08:53:04;;;;;;;;;12.00;9.75;;;;;19.46;32.50;102436.25;6268933;22;45412;-75
2024/01/10 08:55:29;;;;;;;;;8.00;8.00;;;;;19.46;31.78;102435.41;6269031;22;46428;-75
2024/01/10 08:57:55;;;;;;;;;7.25;7.25;;;;;19.37;32.14;102426.41;6268459;22;45372;-75
2024/01/10 09:00:21;;;;;;;;;8.50;8.50;;;;;19.36;32.48;102425.56;6268709;22;45373;-76
2024/01/10 09:02:46;;;;;;;;;9.25;6.25;;;;;19.32;32.26;102412.75;6268440;22;45385;-75
2024/01/10 09:05:12;;;;;;;;;7.00;7.00;;;;;19.33;32.16;102414.44;6268553;22;55978;-75
2024/01/10 09:07:37;;;;;;;;;8.75;8.75;;;;;19.10;32.19;102380.97;6269271;22;45366;-76
2024/01/10 09:10:05;;;;;;;;;9.50;8.75;;;;;19.45;32.25;102433.72;6268797;22;45229;-75
2024/01/10 09:12:30;;;;;;;;;8.50;8.00;;;;;19.29;32.12;102411.19;6268607;22;45224;-75
2024/01/10 09:14:56;;;;;;;;;9.75;8.00;;;;;19.11;31.75;102373.91;6268284;22;46505;-76
2024/01/10 09:17:21;;;;;;;;;5.75;3.75;;;;;19.36;32.21;102427.38;6268962;22;45341;-75
2024/01/10 09:19:46;;;;;;;;;11.00;10.00;;;;;19.43;32.07;102447.03;6270028;22;45217;-75
2024/01/10 09:22:13;;;;;;;;;8.00;8.00;;;;;19.35;32.01;102436.25;6269531;22;45313;-75
2024/01/10 09:24:38;;;;;;;;;7.25;7.25;;;;;19.43;32.05;102441.75;6268699;22;46552;-74
2024/01/10 09:27:04;;;;;;;;;8.00;8.00;;;;;19.31;32.08;102426.91;6268756;22;45353;-73
2024/01/10 09:29:31;;;;;;;;;10.50;7.50;;;;;19.25;32.00;102418.53;6269105;22;45997;-75
2024/01/10 09:31:56;;;;;;;;;9.25;7.75;;;;;19.42;32.22;102437.44;6269264;22;45468;-75
2024/01/10 09:34:21;;;;;;;;;9.50;8.50;;;;;19.42;31.82;102440.06;6268492;22;46128;-75
2024/01/10 09:36:47;;;;;;;;;6.75;6.75;;;;;19.36;31.93;102437.94;6269591;22;45324;-76
2024/01/10 09:39:13;;;;;;;;;9.75;9.75;;;;;19.42;32.06;102445.34;6269400;22;45241;-75
2024/01/10 09:41:47;;;;;;;;;7.25;5.25;;;;;19.40;31.68;102453.41;6268522;22;45565;-75
2024/01/10 09:44:12;;;;;;;;;11.00;8.75;;;;;19.26;31.88;102420.19;6267724;22;46218;-75
2024/01/10 09:46:40;;;;;;;;;11.00;10.00;;;;;19.41;31.98;102448.97;6270052;22;45356;-75
2024/01/10 09:49:06;;;;;;;;;8.25;7.00;;;;;19.38;31.86;102443.94;6270542;22;45288;-75
2024/01/10 09:51:33;;;;;;;;;9.75;9.00;;;;;19.24;31.67;102427.41;6272443;22;45448;-76
2024/01/10 09:54:02;;;;;;;;;10.50;9.50;;;;;19.40;31.79;102442.84;6269250;22;46118;-75
2024/01/10 09:56:28;;;;;;;;;10.25;9.00;;;;;19.39;31.92;102453.50;6269221;22;45403;-74
2024/01/10 09:58:58;;;;;;;;;11.75;9.00;;;;;19.34;31.95;102434.56;6270446;22;45786;-76
2024/01/10 10:01:24;;;;;;;;;8.00;8.00;;;;;19.38;31.47;102439.50;6270232;22;45560;-75
2024/01/10 10:03:50;;;;;;;;;10.00;8.50;;;;;19.39;31.65;102445.59;6269946;22;47163;-75
2024/01/10 10:06:16;;;;;;;;;8.75;7.75;;;;;19.36;31.71;102435.31;6270067;22;45348;-75
2024/01/10 10:08:41;;;;;;;;;8.25;8.00;;;;;19.37;31.77;102440.44;6269881;22;45620;-75
2024/01/10 10:11:12;;;;;;;;;11.25;8.00;;;;;19.37;31.41;102442.25;6269634;22;45373;-75
2024/01/10 10:13:41;;;;;;;;;12.75;8.75;;;;;19.37;31.37;102445.72;6268876;22;46597;-74
2024/01/10 10:16:08;;;;;;;;;10.75;8.25;;;;;19.37;31.39;102444.88;6269553;22;45388;-74
2024/01/10 10:18:34;;;;;;;;;11.50;9.00;;;;;19.38;31.45;102443.94;6269101;22;45294;-75
2024/01/10 10:21:12;;;;;;;;;9.00;9.00;;;;;19.36;31.65;102441.41;6269554;22;45365;-76
2024/01/10 10:23:39;;;;;;;;;8.75;8.00;;;;;19.36;31.67;102430.84;6269115;22;47430;-75
2024/01/10 10:26:21;;;;;;;;;15.25;10.00;;;;;19.15;31.33;102393.81;6269615;22;45352;-76
2024/01/10 10:28:48;;;;;;;;;10.25;9.25;;;;;19.37;31.37;102429.03;6269674;22;45280;-76
2024/01/10 10:31:15;;;;;;;;;10.50;9.50;;;;;19.36;31.59;102430.84;6269986;22;45441;-75
2024/01/10 10:33:40;;;;;;;;;8.75;8.50;;;;;19.33;31.28;102420.56;6269552;22;45441;-76
2024/01/10 10:36:07;;;;;;;;;8.00;7.25;;;;;19.37;31.54;102426.41;6269568;22;45336;-75
2024/01/10 10:38:33;;;;;;;;;9.25;6.75;;;;;19.37;31.53;102421.13;6268592;22;45417;-75
2024/01/10 10:40:59;;;;;;;;;10.25;9.25;;;;;19.37;31.30;102421.13;6269455;22;45282;-80
2024/01/10 10:43:25;;;;;;;;;14.50;10.25;;;;;19.37;31.19;102415.84;6268672;22;46082;-75
2024/01/10 10:45:51;;;;;;;;;12.75;10.00;;;;;19.37;31.35;102423.78;6270232;22;45465;-76
2024/01/10 10:48:22;;;;;;;;;13.75;10.25;;;;;19.23;31.57;102391.41;6269911;22;45306;-75
2024/01/10 10:50:59;;;;;;;;;11.00;8.75;;;;;19.40;31.64;102410.34;6269806;22;45335;-75
2024/01/10 10:53:27;;;;;;;;;12.50;9.50;;;;;19.36;31.57;102406.28;6269084;22;46986;-75
2024/01/10 10:55:54;;;;;;;;;8.75;8.75;;;;;19.32;31.89;102399.56;6269721;22;45461;-75
2024/01/10 10:58:21;;;;;;;;;8.25;6.00;;;;;19.22;31.69;102379.19;6270738;22;45751;-76
2024/01/10 11:00:47;;;;;;;;;8.00;7.75;;;;;19.15;31.96;102364.78;6269785;22;45356;-76
2024/01/10 11:03:14;;;;;;;;;7.50;6.75;;;;;19.43;31.76;102411.88;6269014;22;46914;-75
2024/01/10 11:05:41;;;;;;;;;9.75;8.25;;;;;19.42;32.11;102400.47;6269601;22;45398;-78
2024/01/10 11:08:10;;;;;;;;;9.00;9.00;;;;;19.39;31.78;102392.81;6271163;22;45191;-75
2024/01/10 11:10:39;;;;;;;;;9.50;8.25;;;;;19.32;32.11;102374.00;6273576;22;45299;-74
2024/01/10 11:13:28;;;;;;;;;9.00;7.50;;;;;19.47;32.24;102398.31;6272213;22;45990;-75
2024/01/10 11:16:21;;;;;;;;;10.00;8.25;;;;;19.48;32.38;102391.22;6272767;22;45328;-74
2024/01/10 11:18:52;;;;;;;;;10.75;9.75;;;;;19.15;32.14;102333.94;6273700;22;45181;-74
2024/01/10 11:21:42;;;;;;;;;8.50;8.00;;;;;19.51;32.30;102393.63;6273087;22;45262;-73
2024/01/10 11:24:09;;;;;;;;;11.00;8.25;;;;;19.30;32.68;102354.81;6272921;22;45277;-76
2024/01/10 11:26:37;;;;;;;;;7.25;7.25;;;;;19.53;32.51;102394.34;6272444;22;45583;-75
2024/01/10 11:29:05;;;;;;;;;12.25;9.75;;;;;19.53;32.61;102389.06;6272126;22;45301;-74
2024/01/10 11:31:32;;;;;;;;;7.75;7.25;;;;;19.53;32.37;102382.94;6273029;22;45241;-75
2024/01/10 11:33:59;;;;;;;;;13.25;11.00;;;;;19.56;32.57;102391.44;6273263;22;46302;-76
2024/01/10 11:36:26;;;;;;;;;10.00;7.50;;;;;19.50;32.65;102368.19;6272415;22;45401;-75
2024/01/10 11:38:53;;;;;;;;;8.75;7.75;;;;;19.58;32.90;102380.75;6272626;22;45273;-76
2024/01/10 11:41:28;;;;;;;;;12.25;9.75;;;;;19.60;32.75;102381.47;6273465;22;45345;-76
2024/01/10 11:44:12;;;;;;;;;10.00;8.75;;;;;19.62;32.67;102382.19;6273242;22;46114;-75
2024/01/10 11:46:52;;;;;;;;;9.25;9.00;;;;;19.51;32.89;102352.22;6273348;22;45284;-76
2024/01/10 11:49:19;;;;;;;;;9.00;7.00;;;;;19.64;32.97;102376.78;6272340;22;45509;-75
2024/01/10 11:51:46;;;;;;;;;12.25;8.25;;;;;19.62;32.61;102369.00;6272814;22;45305;-75
2024/01/10 11:54:11;;;;;;;;;9.75;8.00;;;;;19.65;32.52;102370.53;6242593;22;47363;-75
2024/01/10 11:56:44;;;;;;;;;9.00;8.00;;;;;19.48;32.39;102343.72;6272710;22;45251;-75
2024/01/10 11:59:11;;;;;;;;;12.25;9.75;;;;;19.61;32.55;102360.22;6273124;22;45281;-75
2024/01/10 12:01:41;;;;;;;;;10.25;9.00;;;;;19.61;32.51;102359.38;6272737;22;45555;-76
2024/01/10 12:04:07;;;;;;;;;10.00;6.00;;;;;19.60;32.61;102368.25;6273114;22;46389;-76
2024/01/10 12:06:35;;;;;;;;;10.00;9.50;;;;;19.61;32.35;102356.75;6272412;22;45200;-77
2024/01/10 12:09:04;;;;;;;;;8.50;8.50;;;;;19.61;32.43;102354.94;6273276;22;45281;-76
2024/01/10 12:11:30;;;;;;;;;10.50;8.25;;;;;19.62;32.38;102347.88;6272476;22;45221;-75
2024/01/10 12:13:55;;;;;;;;;8.50;7.00;;;;;19.62;32.45;102350.50;6267990;22;46981;-75
2024/01/10 12:16:23;;;;;;;;;10.25;9.75;;;;;19.63;32.47;102346.88;6268228;22;45285;-75
2024/01/10 12:18:48;;;;;;;;;11.25;9.00;;;;;19.53;32.30;102327.50;6269434;22;45392;-75
2024/01/10 12:21:14;;;;;;;;;9.25;7.25;;;;;19.64;32.31;102345.09;6269020;22;45376;-75
2024/01/10 12:23:40;;;;;;;;;8.75;8.50;;;;;19.55;32.21;102325.56;6269678;22;45841;-75
2024/01/10 12:26:13;;;;;;;;;9.50;8.50;;;;;19.55;32.40;102322.91;6268956;22;45372;-75
2024/01/10 12:28:40;;;;;;;;;9.75;8.25;;;;;19.34;32.31;102290.25;6269820;22;45364;-75
2024/01/10 12:31:09;;;;;;;;;7.25;6.00;;;;;19.60;32.17;102332.13;6268948;22;45970;-75
2024/01/10 12:33:39;;;;;;;;;10.50;9.00;;;;;19.65;32.15;102325.66;6269038;22;46184;-75
2024/01/10 12:36:11;;;;;;;;;8.00;8.00;;;;;19.57;32.18;102316.53;6268433;22;45308;-75
2024/01/10 12:38:38;;;;;;;;;8.50;8.00;;;;;19.61;31.96;102317.97;6269273;22;45373;-75
2024/01/10 12:41:04;;;;;;;;;7.50;7.00;;;;;19.62;31.83;102314.34;6269638;22;45341;-75
2024/01/10 12:43:30;;;;;;;;;11.75;8.75;;;;;19.61;31.97;102323.25;6268895;22;46110;-75
2024/01/10 12:46:05;;;;;;;;;10.50;8.50;;;;;19.62;32.00;102322.28;6269063;22;45347;-75
2024/01/10 12:48:33;;;;;;;;;7.75;6.00;;;;;19.62;32.04;102318.81;6241291;22;45353;-75
2024/01/10 12:51:00;;;;;;;;;9.75;9.25;;;;;19.58;31.90;102323.50;6268552;22;45433;-75
2024/01/10 12:53:28;;;;;;;;;10.75;10.00;;;;;19.59;31.93;102317.28;6267758;22;46350;-75
2024/01/10 12:55:54;;;;;;;;;8.00;7.50;;;;;19.57;32.10;102324.47;6269226;22;45341;-75
2024/01/10 12:58:20;;;;;;;;;8.25;7.75;;;;;19.59;31.85;102324.34;6268500;22;45337;-75
2024/01/10 13:00:45;;;;;;;;;13.00;8.50;;;;;19.57;32.08;102313.91;6268786;22;45348;-75
2024/01/10 13:03:10;;;;;;;;;11.50;8.50;;;;;19.51;31.98;102307.34;6268631;22;45988;-76
2024/01/10 13:05:36;;;;;;;;;7.25;6.75;;;;;19.42;31.32;102297.53;6268653;22;45362;-75
2024/01/10 13:08:05;;;;;;;;;11.25;10.25;;;;;19.52;31.82;102302.88;6269918;22;45608;-75
2024/01/10 13:10:30;;;;;;;;;9.75;8.25;;;;;19.49;31.74;102298.69;6268814;22;45290;-75
2024/01/10 13:12:55;;;;;;;;;13.50;10.00;;;;;19.20;31.87;102245.69;6268630;22;47244;-75
2024/01/10 13:15:21;;;;;;;;;10.00;7.75;;;;;19.39;31.86;102279.31;6268524;22;45204;-75
2024/01/10 13:17:46;;;;;;;;;8.75;8.75;;;;;19.52;31.59;102302.88;6269139;22;45312;-75
2024/01/10 13:20:11;;;;;;;;;9.00;7.00;;;;;19.50;31.70;102303.03;6243147;22;45651;-75
2024/01/10 13:22:37;;;;;;;;;10.75;8.00;;;;;19.36;31.81;102280.41;6270145;22;45926;-75
2024/01/10 13:25:03;;;;;;;;;11.50;8.75;;;;;19.28;31.75;102273.13;6271129;22;46019;-76
2024/01/10 13:27:28;;;;;;;;;10.00;9.25;;;;;19.50;31.88;102308.31;6270098;22;45789;-75
2024/01/10 13:29:54;;;;;;;;;12.50;9.25;;;;;19.41;31.48;102295.88;6270002;22;46480;-75
2024/01/10 13:32:19;;;;;;;;;7.00;6.00;;;;;19.35;31.57;102286.66;6269161;22;57141;-75
2024/01/10 13:34:44;;;;;;;;;12.75;10.25;;;;;19.42;31.61;102305.44;6269901;22;45314;-75
2024/01/10 13:37:12;;;;;;;;;9.25;9.00;;;;;19.44;31.58;102300.06;6271199;22;45389;-75
2024/01/10 13:39:37;;;;;;;;;9.00;8.75;;;;;19.24;31.30;102271.72;6269473;22;45855;-75
2024/01/10 13:42:03;;;;;;;;;13.00;10.00;;;;;19.48;31.29;102314.69;6269536;22;59472;-75
2024/01/10 13:44:28;;;;;;;;;11.75;11.25;;;;;19.37;31.24;102289.16;6270106;22;45470;-75
2024/01/10 13:46:53;;;;;;;;;8.50;6.75;;;;;19.32;31.38;102288.69;6270023;22;45223;-75
2024/01/10 13:49:19;;;;;;;;;12.50;8.00;;;;;19.42;31.30;102301.97;6269661;22;45423;-76
2024/01/10 13:51:44;;;;;;;;;8.50;7.25;;;;;19.07;31.45;102249.31;6241099;22;46223;-75
2024/01/10 13:54:10;;;;;;;;;9.00;8.25;;;;;19.33;31.51;102293.88;6270950;22;45178;-75
2024/01/10 13:56:35;;;;;;;;;10.75;7.75;;;;;19.36;31.24;102284.88;6269856;22;45319;-75
2024/01/10 13:59:01;;;;;;;;;12.00;9.75;;;;;19.32;31.26;102286.06;6270683;22;45433;-75
2024/01/10 14:01:26;;;;;;;;;11.75;8.75;;;;;19.42;31.44;102302.81;6269708;22;46168;-75
2024/01/10 14:03:51;;;;;;;;;7.50;7.50;;;;;19.43;31.52;102293.94;6269860;22;45274;-75
2024/01/10 14:06:17;;;;;;;;;8.75;6.75;;;;;19.24;31.29;102274.34;6270909;22;45892;-75
2024/01/10 14:08:43;;;;;;;;;10.00;9.25;;;;;19.41;31.14;102301.16;6270265;22;45198;-76
2024/01/10 14:11:08;;;;;;;;;10.00;9.00;;;;;19.42;31.09;102299.34;6269823;22;47056;-75
2024/01/10 14:13:35;;;;;;;;;11.50;9.25;;;;;19.11;31.24;102249.88;6269770;22;45396;-75
2024/01/10 14:16:01;;;;;;;;;12.25;9.75;;;;;19.31;31.41;102284.41;6269839;22;45303;-75
2024/01/10 14:18:26;;;;;;;;;9.00;9.00;;;;;19.24;31.27;102269.06;6269659;22;45704;-75
2024/01/10 14:20:51;;;;;;;;;12.00;8.50;;;;;19.36;31.19;102292.78;6269934;22;52353;-75
2024/01/10 14:23:17;;;;;;;;;8.50;7.00;;;;;19.39;31.12;102295.16;6242545;22;45334;-75
2024/01/10 14:25:43;;;;;;;;;3.25;1.00;;;;;19.35;30.96;102302.50;6270098;22;45293;-75
2024/01/10 14:28:08;;;;;;;;;9.00;9.00;;;;;19.25;31.47;102280.47;6270149;22;45258;-75
2024/01/10 14:30:34;;;;;;;;;8.00;6.25;;;;;19.28;31.06;102286.31;6269618;22;46128;-75
2024/01/10 14:32:59;;;;;;;;;9.50;9.00;;;;;19.34;31.12;102299.97;6269671;22;45349;-75
2024/01/10 14:35:24;;;;;;;;;9.50;8.00;;;;;19.36;31.15;102313.91;6269548;22;45316;-75
2024/01/10 14:37:50;;;;;;;;;9.25;8.75;;;;;19.36;31.04;102316.53;6242661;22;45396;-75
2024/01/10 14:40:15;;;;;;;;;10.00;7.00;;;;;19.29;31.02;102300.34;6269661;22;46425;-75
2024/01/10 14:42:41;;;;;;;;;7.50;7.00;;;;;19.29;31.33;102308.28;6270465;22;45247;-75
2024/01/10 14:45:08;;;;;;;;;8.75;7.25;;;;;19.33;31.11;102317.63;6270243;22;45298;-75
2024/01/10 14:47:33;;;;;;;;;7.75;6.75;;;;;19.21;31.09;102303.63;6269210;22;45377;-75
2024/01/10 14:49:59;;;;;;;;;9.75;9.25;;;;;19.28;31.00;102327.72;6269606;22;45845;-75
2024/01/10 14:52:25;;;;;;;;;10.50;7.50;;;;;19.17;31.10;102302.16;6269421;22;45357;-75
2024/01/10 14:54:51;;;;;;;;;12.50;7.50;;;;;19.32;30.81;102331.78;6270021;22;45425;-74
2024/01/10 14:57:16;;;;;;;;;11.00;9.00;;;;;19.32;30.77;102334.41;6270089;22;45881;-75
2024/01/10 14:59:42;;;;;;;;;10.50;9.25;;;;;19.20;31.04;102324.88;6269665;22;46639;-76
2024/01/10 15:02:07;;;;;;;;;12.25;8.25;;;;;19.31;31.03;102332.72;6269528;22;45712;-75
2024/01/10 15:04:37;;;;;;;;;12.25;9.50;;;;;19.29;30.97;102334.66;6269257;22;45617;-75
2024/01/10 15:07:03;;;;;;;;;10.75;8.75;;;;;19.32;30.97;102334.41;6270302;22;45328;-75
2024/01/10 15:09:28;;;;;;;;;9.75;8.75;;;;;19.24;30.71;102331.56;6268863;22;46356;-75
2024/01/10 15:11:54;;;;;;;;;10.00;9.00;;;;;19.28;30.95;102339.09;6270179;22;45766;-75
2024/01/10 15:14:21;;;;;;;;;12.75;9.50;;;;;19.23;30.93;102343.91;6269886;22;45842;-75
2024/01/10 15:16:46;;;;;;;;;9.50;7.00;;;;;19.28;30.95;102351.47;6269859;22;45218;-75
2024/01/10 15:19:12;;;;;;;;;11.50;11.50;;;;;19.27;30.61;102355.06;6269865;22;46212;-75
2024/01/10 15:21:38;;;;;;;;;11.00;8.50;;;;;19.27;30.81;102362.97;6269703;22;45336;-75
2024/01/10 15:24:04;;;;;;;;;13.00;9.50;;;;;19.14;31.06;102337.56;6269494;22;45286;-76
2024/01/10 15:26:29;;;;;;;;;9.75;9.00;;;;;19.23;30.75;102351.81;6269240;22;45282;-75
2024/01/10 15:28:54;;;;;;;;;10.00;10.00;;;;;19.14;30.79;102349.91;6268790;22;58321;-75
2024/01/10 15:31:21;;;;;;;;;9.00;9.00;;;;;19.20;30.80;102357.38;6269540;22;45431;-75
2024/01/10 15:33:46;;;;;;;;;7.50;6.25;;;;;19.23;30.39;102372.13;6270274;22;45415;-75
2024/01/10 15:36:14;;;;;;;;;15.75;12.00;;;;;19.10;30.56;102345.84;6269496;22;45389;-75
2024/01/10 15:38:40;;;;;;;;;12.75;11.00;;;;;19.23;30.34;102374.75;6269811;22;45890;-75
2024/01/10 15:41:12;;;;;;;;;11.75;9.00;;;;;19.07;30.60;102353.03;6268879;22;45439;-75
2024/01/10 15:43:38;;;;;;;;;5.00;3.50;;;;;19.20;30.46;102373.19;6268778;22;45330;-75
2024/01/10 15:46:04;;;;;;;;;8.75;7.75;;;;;19.10;30.29;102349.31;6269757;22;45225;-74
2024/01/10 15:48:30;;;;;;;;;11.75;10.50;;;;;19.15;30.47;102365.59;6269327;22;45929;-75
2024/01/10 15:50:56;;;;;;;;;9.00;9.00;;;;;19.12;30.78;102362.38;6269303;22;45448;-75
2024/01/10 15:53:22;;;;;;;;;10.75;8.50;;;;;19.12;30.25;102357.97;6269742;22;45350;-75
2024/01/10 15:55:50;;;;;;;;;11.25;11.00;;;;;19.21;30.56;102374.84;6269895;22;45425;-75
2024/01/10 15:58:16;;;;;;;;;12.25;11.00;;;;;19.21;30.42;102381.94;6269085;22;46269;-75
2024/01/10 16:00:42;;;;;;;;;13.50;11.50;;;;;18.89;30.47;102346.59;6269785;22;45215;-75
2024/01/10 16:03:07;;;;;;;;;10.00;10.00;;;;;19.16;30.37;102382.28;6242029;22;45195;-74
2024/01/10 16:05:32;;;;;;;;;12.25;10.50;;;;;19.06;30.53;102358.44;6269669;22;45610;-75
2024/01/10 16:07:58;;;;;;;;;10.00;8.00;;;;;18.98;30.16;102350.28;6268071;22;65712;-75
2024/01/10 16:10:23;;;;;;;;;10.00;10.00;;;;;19.07;30.03;102363.56;6267131;22;45384;-75
2024/01/10 16:12:48;;;;;;;;;9.75;9.50;;;;;19.17;30.37;102378.69;6269151;22;45365;-76
2024/01/10 16:15:13;;;;;;;;;11.00;10.00;;;;;19.15;30.16;102376.16;6269740;22;45340;-75
2024/01/10 16:17:39;;;;;;;;;10.50;9.00;;;;;19.13;30.12;102370.16;6269705;22;45315;-75
2024/01/10 16:20:05;;;;;;;;;12.50;11.50;;;;;19.00;30.20;102362.41;6269357;22;45395;-74
2024/01/10 16:22:33;;;;;;;;;7.50;7.50;;;;;19.14;29.99;102390.31;6269326;22;45550;-75
2024/01/10 16:24:59;;;;;;;;;12.00;10.00;;;;;19.11;29.89;102389.72;6269281;22;45443;-75
2024/01/10 16:27:24;;;;;;;;;12.50;11.50;;;;;19.00;29.92;102380.88;6268805;22;46299;-75
2024/01/10 16:29:50;;;;;;;;;12.00;11.00;;;;;19.11;30.17;102395.84;6269696;22;45477;-75
2024/01/10 16:32:15;;;;;;;;;11.25;10.25;;;;;19.11;30.09;102385.28;6269309;22;45555;-74
2024/01/10 16:34:40;;;;;;;;;11.25;9.00;;;;;19.05;29.94;102383.13;6269646;22;45416;-74
2024/01/10 16:37:07;;;;;;;;;11.50;7.25;;;;;19.10;30.12;102407.34;6241707;22;48151;-74
2024/01/10 16:39:33;;;;;;;;;11.50;9.75;;;;;19.11;29.96;102403.75;6269508;22;45645;-74
2024/01/10 16:41:58;;;;;;;;;12.50;10.50;;;;;19.00;30.36;102399.31;6269037;22;45796;-74
2024/01/10 16:44:23;;;;;;;;;10.25;9.75;;;;;19.09;30.26;102405.69;6269231;22;45325;-75
2024/01/10 16:46:51;;;;;;;;;11.50;10.00;;;;;19.05;29.86;102401.59;6269007;22;47341;-74
2024/01/10 16:49:16;;;;;;;;;12.50;10.25;;;;;19.07;30.30;102408.44;6268933;22;45380;-74
2024/01/10 16:51:44;;;;;;;;;9.25;9.00;;;;;19.07;29.95;102418.97;6269236;22;45378;-73
2024/01/10 16:54:09;;;;;;;;;15.75;11.00;;;;;19.07;30.17;102415.53;6269044;22;45380;-74
2024/01/10 16:56:34;;;;;;;;;15.75;12.75;;;;;19.07;30.43;102418.97;6269004;22;47285;-74
2024/01/10 16:59:00;;;;;;;;;16.50;11.00;;;;;18.89;30.21;102389.63;6272857;22;50812;-74
2024/01/10 17:01:25;;;;;;;;;12.50;9.75;;;;;18.74;30.10;102375.84;6273634;22;45147;-73
2024/01/10 17:03:52;;;;;;;;;12.75;9.75;;;;;18.97;30.46;102406.66;6244398;22;50694;-74
2024/01/10 17:06:17;;;;;;;;;15.25;12.50;;;;;19.09;29.90;102433.84;6272572;22;46285;-74
2024/01/10 17:08:43;;;;;;;;;11.75;10.00;;;;;18.90;29.97;102401.84;6272699;22;45360;-78
2024/01/10 17:11:09;;;;;;;;;11.75;11.00;;;;;19.09;29.99;102444.41;6272662;22;45342;-74
2024/01/10 17:13:34;;;;;;;;;10.00;9.25;;;;;19.11;30.12;102453.88;6273229;22;45409;-74
2024/01/10 17:15:59;;;;;;;;;15.00;11.00;;;;;18.91;30.05;102421.16;6273139;22;46137;-74
2024/01/10 17:18:25;;;;;;;;;10.50;10.25;;;;;18.97;30.12;102430.41;6273262;22;45273;-74
2024/01/10 17:20:50;;;;;;;;;11.75;11.00;;;;;19.13;30.08;102469.59;6272303;22;45303;-75
2024/01/10 17:23:16;;;;;;;;;14.00;12.50;;;;;19.12;30.19;102463.50;6271571;22;54216;-75
2024/01/10 17:25:41;;;;;;;;;15.75;10.00;;;;;19.01;30.68;102443.22;6273060;22;46067;-77
2024/01/10 17:28:06;;;;;;;;;16.25;11.25;;;;;18.93;30.26;102428.00;6245067;22;45304;-78
2024/01/10 17:30:32;;;;;;;;;3.50;3.50;;;;;19.14;30.62;102464.22;6272975;22;45320;-77
2024/01/10 17:32:58;;;;;;;;;16.75;13.25;;;;;19.15;30.70;102460.59;6272427;22;45390;-79
2024/01/10 17:35:23;;;;;;;;;16.75;11.75;;;;;19.17;30.52;102468.41;6273006;22;46181;-74
2024/01/10 17:37:48;;;;;;;;;14.75;11.75;;;;;19.17;31.00;102476.31;6272860;22;45169;-73
2024/01/10 17:40:14;;;;;;;;;12.00;11.00;;;;;19.06;31.02;102454.25;6272488;22;45120;-75
2024/01/10 17:42:39;;;;;;;;;10.25;9.75;;;;;19.16;31.14;102466.72;6273265;22;45166;-74
2024/01/10 17:45:06;;;;;;;;;12.00;10.75;;;;;19.16;30.69;102466.72;6271596;22;57248;-74
2024/01/10 17:47:32;;;;;;;;;15.25;12.75;;;;;19.16;30.67;102472.00;6272423;22;45163;-75
2024/01/10 17:49:58;;;;;;;;;10.50;9.00;;;;;18.92;30.92;102428.94;6272506;22;45242;-75
2024/01/10 17:52:23;;;;;;;;;13.75;10.50;;;;;19.15;30.72;102475.59;6272734;22;45404;-74
2024/01/10 17:54:48;;;;;;;;;15.25;14.25;;;;;19.16;30.85;102464.91;6272506;22;46004;-75
2024/01/10 17:57:19;;;;;;;;;12.00;11.75;;;;;19.11;30.93;102471.50;6272738;22;45267;-75
2024/01/10 17:59:45;;;;;;;;;13.50;11.25;;;;;19.17;30.49;102490.34;6272667;22;45401;-75
2024/01/10 18:02:10;;;;;;;;;15.00;9.25;;;;;19.18;31.16;102483.28;6272307;22;45435;-75
2024/01/10 18:04:35;;;;;;;;;17.25;13.00;;;;;19.15;30.98;102491.44;6272721;22;47075;-75
2024/01/10 18:07:01;;;;;;;;;11.00;9.25;;;;;19.18;30.79;102499.13;6273890;22;45227;-76
2024/01/10 18:09:26;;;;;;;;;12.50;9.50;;;;;19.14;30.96;102497.66;6273730;22;45229;-76
2024/01/10 18:11:51;;;;;;;;;10.50;10.50;;;;;19.18;31.34;102499.13;6274020;22;50285;-76
2024/01/10 18:14:16;;;;;;;;;13.00;12.25;;;;;19.17;31.23;102503.56;6274004;22;46070;-75
2024/01/10 18:16:42;;;;;;;;;14.75;12.00;;;;;18.98;31.19;102461.94;6274290;22;45183;-76
2024/01/10 18:19:07;;;;;;;;;11.50;10.00;;;;;18.98;31.16;102461.94;6274348;22;45556;-76
2024/01/10 18:21:32;;;;;;;;;12.50;9.75;;;;;19.19;31.00;102495.53;6273945;22;45495;-76
2024/01/10 18:23:58;;;;;;;;;12.75;10.50;;;;;18.88;30.86;102435.44;6273390;22;50585;-76
2024/01/10 18:26:24;;;;;;;;;9.25;9.00;;;;;19.18;31.05;102492.03;6246245;22;45379;-76
2024/01/10 18:28:49;;;;;;;;;7.50;7.50;;;;;19.00;31.27;102462.63;6273814;22;45453;-76
2024/01/10 18:31:15;;;;;;;;;11.75;8.75;;;;;19.18;30.99;102491.19;6274230;22;45424;-76
2024/01/10 18:33:40;;;;;;;;;12.00;11.00;;;;;18.96;31.20;102463.84;6273737;22;50063;-75
2024/01/10 18:36:06;;;;;;;;;12.25;11.25;;;;;19.19;30.90;102506.09;6274187;22;45334;-76
2024/01/10 18:38:31;;;;;;;;;14.50;12.00;;;;;18.79;31.03;102434.34;6273526;22;45433;-76
2024/01/10 18:40:57;;;;;;;;;13.50;12.25;;;;;19.09;31.19;102486.63;6246215;22;45483;-75
2024/01/10 18:43:22;;;;;;;;;12.25;12.00;;;;;19.18;31.21;102499.13;6273494;22;46110;-76
2024/01/10 18:45:49;;;;;;;;;3.75;2.50;;;;;19.09;31.07;102495.38;6273847;22;45321;-75
2024/01/10 18:48:14;;;;;;;;;12.75;11.50;;;;;19.02;31.11;102481.00;6273811;22;45175;-75
2024/01/10 18:50:40;;;;;;;;;4.00;4.00;;;;;19.13;31.11;102507.38;6246119;22;45580;-76
2024/01/10 18:53:06;;;;;;;;;12.00;12.00;;;;;19.04;31.35;102492.28;6273026;22;45995;-76
2024/01/10 18:55:31;;;;;;;;;12.75;10.00;;;;;19.18;30.97;102509.66;6273687;22;45097;-75
2024/01/10 18:57:56;;;;;;;;;14.25;10.75;;;;;19.17;31.02;102506.19;6274371;22;45374;-76
2024/01/10 19:00:26;;;;;;;;;12.75;10.75;;;;;19.18;31.09;102505.25;6274393;22;45277;-77